Time;durP1;ratioP1;P1;durP2;ratioP2;P2;SDS_P1;SDS_P2;PMS_P1;PMS_P2;Temp;Humidity;BMP_temperature;BMP_pressure;BME280_temperature;BME280_humidity;BME280_pressure;Samples;Min_cycle;Max_cycle;Signal;HPM_P1;HPM_P2
2022/07/12 00:00:35;;;;;;;;;;;16.70;99.90;;;;;;5069632;28;19924;-74
2022/07/12 00:03:01;;;;;;;;;;;16.70;99.90;;;;;;5058017;28;19924;-74
2022/07/12 00:05:26;;;;;;;;;;;16.60;99.90;;;;;;5056432;28;19925;-75
2022/07/12 00:07:52;;;;;;;;;;;16.60;99.90;;;;;;5058485;28;20306;-74
2022/07/12 00:10:17;;;;;;;;;;;16.60;99.90;;;;;;5069528;28;20394;-73
2022/07/12 00:12:43;;;;;;;;;;;16.60;99.90;;;;;;5070058;28;19924;-74
2022/07/12 00:15:09;;;;;;;;;;;16.60;99.90;;;;;;5057066;28;19932;-74
2022/07/12 00:17:35;;;;;;;;;;;16.60;99.90;;;;;;5070183;28;19929;-74
2022/07/12 00:20:01;;;;;;;;;;;16.60;99.90;;;;;;5056857;28;19978;-74
2022/07/12 00:22:28;;;;;;;;;;;16.60;99.90;;;;;;5067989;28;19924;-74
2022/07/12 00:24:54;;;;;;;;;;;16.60;99.90;;;;;;5069401;28;19994;-74
2022/07/12 00:27:19;;;;;;;;;;;16.60;99.90;;;;;;5062501;28;19928;-74
2022/07/12 00:29:45;;;;;;;;;;;16.50;99.90;;;;;;5050999;28;19929;-74
2022/07/12 00:32:11;;;;;;;;;;;16.50;99.90;;;;;;5069321;28;19925;-74
2022/07/12 00:34:36;;;;;;;;;;;16.50;99.90;;;;;;5069466;28;20383;-75
2022/07/12 00:37:02;;;;;;;;;;;16.50;99.90;;;;;;5061852;28;20310;-74
2022/07/12 00:39:27;;;;;;;;;;;16.50;99.90;;;;;;5062836;28;19924;-74
2022/07/12 00:41:53;;;;;;;;;;;16.50;99.90;;;;;;5069380;28;19931;-74
2022/07/12 00:44:18;;;;;;;;;;;16.50;99.90;;;;;;5068752;28;19924;-74
2022/07/12 00:46:45;;;;;;;;;;;16.50;99.90;;;;;;5069803;28;19931;-74
2022/07/12 00:49:15;;;;;;;;;;;16.50;99.90;;;;;;5069324;28;19924;-74
2022/07/12 00:51:44;;;;;;;;;;;16.50;99.90;;;;;;5061811;28;20000;-74
2022/07/12 00:54:10;;;;;;;;;;;16.50;99.90;;;;;;5049678;28;20024;-75
2022/07/12 00:56:36;;;;;;;;;;;16.40;99.90;;;;;;5057242;28;20011;-74
2022/07/12 00:59:02;;;;;;;;;;;16.40;99.90;;;;;;5054990;28;20363;-74
2022/07/12 01:01:28;;;;;;;;;;;16.40;99.90;;;;;;5058300;28;19968;-74
2022/07/12 01:03:54;;;;;;;;;;;16.50;99.90;;;;;;5056309;28;19928;-74
2022/07/12 01:06:20;;;;;;;;;;;16.40;99.90;;;;;;5061773;28;19929;-74
2022/07/12 01:08:45;;;;;;;;;;;16.40;99.90;;;;;;5064585;28;19987;-74
2022/07/12 01:11:11;;;;;;;;;;;16.40;99.90;;;;;;5068895;28;19931;-74
2022/07/12 01:13:37;;;;;;;;;;;16.40;99.90;;;;;;5056403;28;20299;-74
2022/07/12 01:16:04;;;;;;;;;;;16.40;99.90;;;;;;5069592;28;20011;-74
2022/07/12 01:18:29;;;;;;;;;;;16.30;99.90;;;;;;5067912;28;19946;-74
2022/07/12 01:20:55;;;;;;;;;;;16.30;99.90;;;;;;5057550;28;19924;-74
2022/07/12 01:23:22;;;;;;;;;;;16.30;99.90;;;;;;5054788;28;20664;-75
2022/07/12 01:25:47;;;;;;;;;;;16.30;99.90;;;;;;5058104;28;19928;-74
2022/07/12 01:28:13;;;;;;;;;;;16.30;99.90;;;;;;5069176;28;19948;-74
2022/07/12 01:30:40;;;;;;;;;;;16.30;99.90;;;;;;5061460;28;20299;-74
2022/07/12 01:33:05;;;;;;;;;;;16.30;99.90;;;;;;5050996;28;20023;-74
2022/07/12 01:35:31;;;;;;;;;;;16.30;99.90;;;;;;5069285;28;20460;-74
2022/07/12 01:37:57;;;;;;;;;;;16.30;99.90;;;;;;5067696;28;19929;-74
2022/07/12 01:40:23;;;;;;;;;;;16.30;99.90;;;;;;5057744;28;19924;-74
2022/07/12 01:42:49;;;;;;;;;;;16.30;99.90;;;;;;5067802;28;19974;-74
2022/07/12 01:45:14;;;;;;;;;;;16.20;99.90;;;;;;5057141;28;19925;-74
2022/07/12 01:47:40;;;;;;;;;;;16.30;99.90;;;;;;5055757;28;19928;-74
2022/07/12 01:50:09;;;;;;;;;;;16.30;99.90;;;;;;5069251;28;19925;-74
2022/07/12 01:52:38;;;;;;;;;;;16.30;99.90;;;;;;5067344;28;19929;-74
2022/07/12 01:55:08;;;;;;;;;;;16.20;99.90;;;;;;5049250;28;19964;-74
2022/07/12 01:57:34;;;;;;;;;;;16.30;99.90;;;;;;5055858;28;19929;-74
2022/07/12 02:00:00;;;;;;;;;;;16.20;99.90;;;;;;5050685;28;19970;-74
2022/07/12 02:02:26;;;;;;;;;;;16.20;99.90;;;;;;5068145;28;19928;-74
2022/07/12 02:04:53;;;;;;;;;;;16.20;99.90;;;;;;5068146;28;19986;-74
2022/07/12 02:07:19;;;;;;;;;;;16.10;99.90;;;;;;5070415;28;20352;-73
2022/07/12 02:09:44;;;;;;;;;;;16.20;99.90;;;;;;5072550;28;19932;-74
2022/07/12 02:12:10;;;;;;;;;;;16.10;99.90;;;;;;5070836;28;19928;-74
2022/07/12 02:14:35;;;;;;;;;;;16.10;99.90;;;;;;5052365;28;19971;-74
2022/07/12 02:17:01;;;;;;;;;;;16.10;99.90;;;;;;5066707;28;19931;-73
2022/07/12 02:19:26;;;;;;;;;;;16.10;99.90;;;;;;5055044;28;19929;-74
2022/07/12 02:21:52;;;;;;;;;;;16.00;99.90;;;;;;5062989;28;19924;-74
2022/07/12 02:24:17;;;;;;;;;;;16.00;99.90;;;;;;5054872;28;19929;-74
2022/07/12 02:26:43;;;;;;;;;;;16.00;99.90;;;;;;5052377;28;19924;-73
2022/07/12 02:29:09;;;;;;;;;;;16.00;99.90;;;;;;5068991;28;19924;-74
2022/07/12 02:31:34;;;;;;;;;;;16.00;99.90;;;;;;5072253;28;19936;-74
2022/07/12 02:34:00;;;;;;;;;;;16.00;99.90;;;;;;5054307;28;20298;-74
2022/07/12 02:36:26;;;;;;;;;;;15.90;99.90;;;;;;5071746;28;20027;-73
2022/07/12 02:38:51;;;;;;;;;;;15.90;99.90;;;;;;5071610;28;19924;-74
2022/07/12 02:41:17;;;;;;;;;;;16.00;99.90;;;;;;5071037;28;19924;-74
2022/07/12 02:43:42;;;;;;;;;;;15.90;99.90;;;;;;5071487;28;19924;-74
2022/07/12 02:46:09;;;;;;;;;;;15.90;99.90;;;;;;5071146;28;19924;-73
2022/07/12 02:48:35;;;;;;;;;;;15.90;99.90;;;;;;5053833;28;19924;-74
2022/07/12 02:51:01;;;;;;;;;;;15.90;99.90;;;;;;5070853;28;19928;-74
2022/07/12 02:53:26;;;;;;;;;;;15.90;99.90;;;;;;5071879;28;19986;-74
2022/07/12 02:55:52;;;;;;;;;;;15.90;99.90;;;;;;5050540;28;19925;-74
2022/07/12 02:58:18;;;;;;;;;;;15.90;99.90;;;;;;5051838;28;19925;-74
2022/07/12 03:00:44;;;;;;;;;;;15.90;99.90;;;;;;5051371;28;19932;-74
2022/07/12 03:03:10;;;;;;;;;;;15.90;99.90;;;;;;5061744;28;19924;-74
2022/07/12 03:05:36;;;;;;;;;;;15.90;99.90;;;;;;5055190;28;19933;-73
2022/07/12 03:08:05;;;;;;;;;;;15.90;99.90;;;;;;5061027;28;19947;-74
2022/07/12 03:10:30;;;;;;;;;;;15.90;99.90;;;;;;5057897;28;20410;-74
2022/07/12 03:12:56;;;;;;;;;;;15.90;99.90;;;;;;5070540;28;19931;-74
2022/07/12 03:15:21;;;;;;;;;;;15.90;99.90;;;;;;5071148;28;19932;-74
2022/07/12 03:17:47;;;;;;;;;;;15.90;99.90;;;;;;5070954;28;20015;-74
2022/07/12 03:20:14;;;;;;;;;;;15.90;99.90;;;;;;5069939;28;19974;-74
2022/07/12 03:22:48;;;;;;;;;;;15.80;99.90;;;;;;5070470;28;19974;-74
2022/07/12 03:25:14;;;;;;;;;;;15.80;99.90;;;;;;5070149;28;19935;-74
2022/07/12 03:27:40;;;;;;;;;;;15.80;99.90;;;;;;5070719;28;19933;-74
2022/07/12 03:30:05;;;;;;;;;;;15.80;99.90;;;;;;5070705;28;19924;-74
2022/07/12 03:32:31;;;;;;;;;;;15.80;99.90;;;;;;5070830;28;19932;-74
2022/07/12 03:34:56;;;;;;;;;;;15.80;99.90;;;;;;5069539;28;19978;-73
2022/07/12 03:37:22;;;;;;;;;;;15.80;99.90;;;;;;5070900;28;19928;-74
2022/07/12 03:39:47;;;;;;;;;;;15.80;99.90;;;;;;5069747;28;19960;-74
2022/07/12 03:42:13;;;;;;;;;;;15.70;99.90;;;;;;5070650;28;19955;-73
2022/07/12 03:44:38;;;;;;;;;;;15.70;99.90;;;;;;5069801;28;19935;-74
2022/07/12 03:47:04;;;;;;;;;;;15.80;99.90;;;;;;5070083;28;20646;-74
2022/07/12 03:49:29;;;;;;;;;;;15.80;99.90;;;;;;5068509;28;19952;-73
2022/07/12 03:51:55;;;;;;;;;;;15.80;99.90;;;;;;5070903;28;19930;-72
2022/07/12 03:54:21;;;;;;;;;;;15.80;99.90;;;;;;5070196;28;19968;-73
2022/07/12 03:59:30;;;;;;;;;;;15.70;99.90;;;;;;5069407;28;20003;-74
2022/07/12 04:01:56;;;;;;;;;;;15.70;99.90;;;;;;5052316;28;20031;-73
2022/07/12 04:04:21;;;;;;;;;;;15.70;99.90;;;;;;5069764;28;20461;-73
2022/07/12 04:06:47;;;;;;;;;;;15.80;99.90;;;;;;5070555;28;20417;-74
2022/07/12 04:09:12;;;;;;;;;;;15.80;99.90;;;;;;5069885;28;20274;-74
2022/07/12 04:11:38;;;;;;;;;;;15.80;99.90;;;;;;5069921;28;20406;-74
2022/07/12 04:14:03;;;;;;;;;;;15.80;99.90;;;;;;5069877;28;19924;-74
2022/07/12 04:16:32;;;;;;;;;;;15.80;99.90;;;;;;5070302;28;19925;-74
2022/07/12 04:18:57;;;;;;;;;;;15.80;99.90;;;;;;5069205;28;19994;-74
2022/07/12 04:21:23;;;;;;;;;;;15.80;99.90;;;;;;5051764;28;20270;-74
2022/07/12 04:23:48;;;;;;;;;;;15.80;99.90;;;;;;5070153;28;20355;-73
2022/07/12 04:26:14;;;;;;;;;;;15.80;99.90;;;;;;5057609;28;20402;-73
2022/07/12 04:28:40;;;;;;;;;;;15.80;99.90;;;;;;5063420;28;20059;-74
2022/07/12 04:31:06;;;;;;;;;;;15.80;99.90;;;;;;5049853;28;19950;-73
2022/07/12 04:33:32;;;;;;;;;;;15.80;99.90;;;;;;5063330;28;20353;-74
2022/07/12 04:35:58;;;;;;;;;;;15.80;99.90;;;;;;5049856;28;20023;-74
2022/07/12 04:38:23;;;;;;;;;;;15.80;99.90;;;;;;5069041;28;20058;-74
2022/07/12 04:40:49;;;;;;;;;;;15.80;99.90;;;;;;5057476;28;20288;-74
2022/07/12 04:43:14;;;;;;;;;;;15.80;99.90;;;;;;5063945;28;19931;-74
2022/07/12 04:45:43;;;;;;;;;;;15.80;99.90;;;;;;5050131;28;19924;-74
2022/07/12 04:48:12;;;;;;;;;;;15.80;99.90;;;;;;5050568;28;20009;-73
2022/07/12 04:50:38;;;;;;;;;;;15.80;99.90;;;;;;5050263;28;19970;-74
2022/07/12 04:53:03;;;;;;;;;;;15.90;99.90;;;;;;5056419;28;19928;-74
2022/07/12 04:55:29;;;;;;;;;;;15.90;99.90;;;;;;5069745;28;20298;-74
2022/07/12 04:57:55;;;;;;;;;;;15.80;99.90;;;;;;5056466;28;19924;-74
2022/07/12 05:00:21;;;;;;;;;;;15.80;99.90;;;;;;5056745;28;19931;-74
2022/07/12 05:02:46;;;;;;;;;;;15.80;99.90;;;;;;5069495;28;20307;-74
2022/07/12 05:05:12;;;;;;;;;;;15.80;99.90;;;;;;5069105;28;19982;-74
2022/07/12 05:07:37;;;;;;;;;;;15.90;99.90;;;;;;5069384;28;19970;-73
2022/07/12 05:10:03;;;;;;;;;;;15.80;99.90;;;;;;5069443;28;19924;-74
2022/07/12 05:12:29;;;;;;;;;;;15.80;99.90;;;;;;5056256;28;20268;-74
2022/07/12 05:14:54;;;;;;;;;;;15.90;99.90;;;;;;5068998;28;19977;-74
2022/07/12 05:17:20;;;;;;;;;;;15.90;99.90;;;;;;5055770;28;19970;-73
2022/07/12 05:19:45;;;;;;;;;;;15.90;99.90;;;;;;5057673;28;19948;-74
2022/07/12 05:22:11;;;;;;;;;;;15.90;99.90;;;;;;5062713;28;19948;-73
2022/07/12 05:24:36;;;;;;;;;;;15.90;99.90;;;;;;5062059;28;19929;-75
2022/07/12 05:27:02;;;;;;;;;;;15.90;99.90;;;;;;5051493;28;20462;-74
2022/07/12 05:29:28;;;;;;;;;;;15.90;99.90;;;;;;5049260;28;19924;-73
2022/07/12 05:31:57;;;;;;;;;;;15.90;99.90;;;;;;5068523;28;20416;-74
2022/07/12 05:34:23;;;;;;;;;;;15.90;99.90;;;;;;5069700;28;19986;-75
2022/07/12 05:36:48;;;;;;;;;;;15.90;99.90;;;;;;5050499;28;20554;-74
2022/07/12 05:39:14;;;;;;;;;;;16.00;99.90;;;;;;5049902;28;19975;-74
2022/07/12 05:41:39;;;;;;;;;;;15.90;99.90;;;;;;5055571;28;20406;-74
2022/07/12 05:44:05;;;;;;;;;;;15.90;99.90;;;;;;5072912;28;19925;-74
2022/07/12 05:46:30;;;;;;;;;;;15.90;99.90;;;;;;5067937;28;19924;-75
2022/07/12 05:48:56;;;;;;;;;;;16.00;99.90;;;;;;5054013;28;19925;-74
2022/07/12 05:54:06;;;;;;;;;;;16.10;99.90;;;;;;5071288;28;19924;-74
2022/07/12 05:56:32;;;;;;;;;;;16.20;99.90;;;;;;5061542;28;20332;-72
2022/07/12 05:58:57;;;;;;;;;;;16.10;99.90;;;;;;5071418;28;19993;-73
2022/07/12 06:01:23;;;;;;;;;;;16.20;99.90;;;;;;5061929;28;20356;-74
2022/07/12 06:03:48;;;;;;;;;;;16.20;99.90;;;;;;5052304;28;19924;-74
2022/07/12 06:06:14;;;;;;;;;;;16.30;99.90;;;;;;5071682;28;20393;-73
2022/07/12 06:08:40;;;;;;;;;;;16.30;99.90;;;;;;5065840;28;19989;-74
2022/07/12 06:11:05;;;;;;;;;;;16.40;99.90;;;;;;5065081;28;20035;-74
2022/07/12 06:13:31;;;;;;;;;;;16.40;99.90;;;;;;5072387;28;19924;-74
2022/07/12 06:15:56;;;;;;;;;;;16.40;99.90;;;;;;5072606;28;20301;-74
2022/07/12 06:18:22;;;;;;;;;;;16.50;99.90;;;;;;5072089;28;19959;-74
2022/07/12 06:20:47;;;;;;;;;;;16.50;99.90;;;;;;5064771;28;19932;-74
2022/07/12 06:23:13;;;;;;;;;;;16.50;99.90;;;;;;5071558;28;19928;-74
2022/07/12 06:25:39;;;;;;;;;;;16.50;99.90;;;;;;5069489;28;20314;-74
2022/07/12 06:28:05;;;;;;;;;;;16.60;99.90;;;;;;5071964;28;20280;-74
2022/07/12 06:30:30;;;;;;;;;;;16.60;99.90;;;;;;5063865;28;20003;-74
2022/07/12 06:32:56;;;;;;;;;;;16.70;99.90;;;;;;5066927;28;19928;-73
2022/07/12 06:35:22;;;;;;;;;;;16.70;99.90;;;;;;5066612;28;20025;-74
2022/07/12 06:37:47;;;;;;;;;;;16.80;99.90;;;;;;5064970;28;19931;-73
2022/07/12 06:40:16;;;;;;;;;;;16.80;99.90;;;;;;5065056;28;20009;-74
2022/07/12 06:42:43;;;;;;;;;;;16.80;99.90;;;;;;5063793;28;19947;-74
2022/07/12 06:45:09;;;;;;;;;;;16.90;99.90;;;;;;5071417;28;19931;-74
2022/07/12 06:47:34;;;;;;;;;;;17.00;99.90;;;;;;5068713;28;20027;-74
2022/07/12 06:50:00;;;;;;;;;;;17.00;99.90;;;;;;5063500;28;19929;-75
2022/07/12 06:52:26;;;;;;;;;;;17.10;99.90;;;;;;5065115;28;19924;-74
2022/07/12 06:54:51;;;;;;;;;;;17.30;99.90;;;;;;5059064;28;20302;-74
2022/07/12 06:57:17;;;;;;;;;;;17.30;99.90;;;;;;5060724;28;19979;-74
2022/07/12 06:59:42;;;;;;;;;;;17.50;99.90;;;;;;5060384;28;19929;-74
2022/07/12 07:02:08;;;;;;;;;;;17.50;99.90;;;;;;5056443;28;20320;-74
2022/07/12 07:04:34;;;;;;;;;;;17.60;99.90;;;;;;5064682;28;20294;-73
2022/07/12 07:06:59;;;;;;;;;;;17.70;99.90;;;;;;5065922;28;19924;-73
2022/07/12 07:09:25;;;;;;;;;;;17.80;99.90;;;;;;5071359;28;19994;-74
2022/07/12 07:11:51;;;;;;;;;;;17.90;99.90;;;;;;5063880;28;20302;-73
2022/07/12 07:14:16;;;;;;;;;;;18.00;99.90;;;;;;5071591;28;19924;-73
2022/07/12 07:16:42;;;;;;;;;;;18.10;99.90;;;;;;5071397;28;20022;-74
2022/07/12 07:19:07;;;;;;;;;;;18.20;99.90;;;;;;5067980;28;19934;-74
2022/07/12 07:21:33;;;;;;;;;;;18.30;99.90;;;;;;5070734;28;20302;-73
2022/07/12 07:23:58;;;;;;;;;;;18.30;99.90;;;;;;5071368;28;20395;-73
2022/07/12 07:26:24;;;;;;;;;;;18.40;99.90;;;;;;5071087;28;19928;-73
2022/07/12 07:31:34;;;;;;;;;;;18.50;99.90;;;;;;5070120;28;19967;-74
2022/07/12 07:34:00;;;;;;;;;;;18.60;99.90;;;;;;5070533;28;20337;-74
2022/07/12 07:36:26;;;;;;;;;;;18.60;99.90;;;;;;5070590;28;19939;-74
2022/07/12 07:38:51;;;;;;;;;;;18.70;99.90;;;;;;5071132;28;20337;-74
2022/07/12 07:41:17;;;;;;;;;;;18.70;99.90;;;;;;5068088;28;20641;-74
2022/07/12 07:43:42;;;;;;;;;;;18.70;99.90;;;;;;5060123;28;19924;-74
2022/07/12 07:46:08;;;;;;;;;;;18.70;99.90;;;;;;5065139;28;19933;-74
2022/07/12 07:48:33;;;;;;;;;;;18.80;99.90;;;;;;5066320;28;19925;-74
2022/07/12 07:50:59;;;;;;;;;;;18.90;99.90;;;;;;5061787;28;19937;-74
2022/07/12 07:53:27;;;;;;;;;;;18.90;99.90;;;;;;5065434;28;19986;-74
2022/07/12 07:55:53;;;;;;;;;;;19.00;99.90;;;;;;5052882;28;19933;-74
2022/07/12 07:58:20;;;;;;;;;;;19.00;99.90;;;;;;5054650;28;20370;-75
2022/07/12 08:00:46;;;;;;;;;;;19.00;99.90;;;;;;5054699;28;20367;-75
2022/07/12 08:03:12;;;;;;;;;;;19.00;99.90;;;;;;5055171;28;19924;-75
2022/07/12 08:05:37;;;;;;;;;;;19.10;99.90;;;;;;5044998;28;19931;-74
2022/07/12 08:08:03;;;;;;;;;;;19.20;99.90;;;;;;5041540;28;19935;-74
2022/07/12 08:10:30;;;;;;;;;;;19.40;99.90;;;;;;5066264;28;19940;-74
2022/07/12 08:12:55;;;;;;;;;;;19.50;99.90;;;;;;5070238;28;19977;-74
2022/07/12 08:15:22;;;;;;;;;;;19.60;99.90;;;;;;5042879;28;19928;-74
2022/07/12 08:17:48;;;;;;;;;;;19.70;99.90;;;;;;5070311;28;19928;-74
2022/07/12 08:20:13;;;;;;;;;;;19.80;99.90;;;;;;5066237;28;20435;-74
2022/07/12 08:22:45;;;;;;;;;;;19.80;99.90;;;;;;5064061;28;19928;-74
2022/07/12 08:25:11;;;;;;;;;;;19.90;99.90;;;;;;5058369;28;20306;-74
2022/07/12 08:27:37;;;;;;;;;;;20.00;99.90;;;;;;5066457;28;19924;-74
2022/07/12 08:30:02;;;;;;;;;;;20.10;99.90;;;;;;5066071;28;20038;-74
2022/07/12 08:32:28;;;;;;;;;;;20.30;99.90;;;;;;5066279;28;19928;-75
2022/07/12 08:34:54;;;;;;;;;;;20.40;99.90;;;;;;5060317;28;20023;-74
2022/07/12 08:37:19;;;;;;;;;;;20.60;99.90;;;;;;5046982;28;19924;-74
2022/07/12 08:39:45;;;;;;;;;;;20.70;99.90;;;;;;5064432;28;19924;-73
2022/07/12 08:42:13;;;;;;;;;;;20.80;99.90;;;;;;5051597;28;19929;-74
2022/07/12 08:44:39;;;;;;;;;;;20.90;99.90;;;;;;5068773;28;19929;-74
2022/07/12 08:47:07;;;;;;;;;;;20.90;99.90;;;;;;5069502;28;19924;-73
2022/07/12 08:49:32;;;;;;;;;;;21.00;99.90;;;;;;5066788;28;19978;-74
2022/07/12 08:51:58;;;;;;;;;;;21.20;99.90;;;;;;5069291;28;19963;-74
2022/07/12 08:54:23;;;;;;;;;;;21.30;99.90;;;;;;5068691;28;19935;-75
2022/07/12 08:56:49;;;;;;;;;;;21.50;99.90;;;;;;5060563;28;19933;-73
2022/07/12 08:59:18;;;;;;;;;;;21.70;99.90;;;;;;5055151;28;19985;-73
2022/07/12 09:01:44;;;;;;;;;;;21.80;99.90;;;;;;5055942;28;19931;-74
2022/07/12 09:04:10;;;;;;;;;;;21.90;99.90;;;;;;5053646;28;20023;-74
2022/07/12 09:06:35;;;;;;;;;;;22.00;99.90;;;;;;5053564;28;20437;-74
2022/07/12 09:09:01;;;;;;;;;;;22.10;99.90;;;;;;5063677;28;19925;-74
2022/07/12 09:11:26;;;;;;;;;;;22.20;99.90;;;;;;5064608;28;20007;-74
2022/07/12 09:13:53;;;;;;;;;;;22.30;99.90;;;;;;5046651;28;19937;-74
2022/07/12 09:16:20;;;;;;;;;;;22.50;99.90;;;;;;5061084;28;19932;-74
2022/07/12 09:18:45;;;;;;;;;;;22.60;99.90;;;;;;5073662;28;19928;-74
2022/07/12 09:21:31;;;;;;;;;;;22.70;99.90;;;;;;5069604;28;20386;-74
2022/07/12 09:23:57;;;;;;;;;;;22.80;99.90;;;;;;5048109;28;19924;-74
2022/07/12 09:26:24;;;;;;;;;;;22.80;99.90;;;;;;5072389;28;19933;-73
2022/07/12 09:28:50;;;;;;;;;;;22.80;99.90;;;;;;5073590;28;19931;-74
2022/07/12 09:31:16;;;;;;;;;;;22.90;99.90;;;;;;5073051;28;20019;-74
2022/07/12 09:36:25;;;;;;;;;;;23.00;99.90;;;;;;5059728;28;19968;-74
2022/07/12 09:39:00;;;;;;;;;;;23.20;99.90;;;;;;5073424;28;20085;-74
2022/07/12 09:41:26;;;;;;;;;;;23.30;99.90;;;;;;5061190;28;19931;-74
2022/07/12 09:43:52;;;;;;;;;;;23.30;99.90;;;;;;5073133;28;19928;-73
2022/07/12 09:46:17;;;;;;;;;;;23.30;99.90;;;;;;5072978;28;19924;-73
2022/07/12 09:48:44;;;;;;;;;;;23.40;99.90;;;;;;5070276;28;20301;-73
2022/07/12 09:51:12;;;;;;;;;;;23.50;99.90;;;;;;5072676;28;19924;-73
2022/07/12 09:53:41;;;;;;;;;;;23.60;99.90;;;;;;5055109;28;20527;-74
2022/07/12 09:56:10;;;;;;;;;;;23.80;99.90;;;;;;5067428;28;20087;-73
2022/07/12 09:58:56;;;;;;;;;;;23.90;99.90;;;;;;5069368;28;20007;-74
2022/07/12 10:01:23;;;;;;;;;;;24.00;99.90;;;;;;5070659;28;19924;-74
2022/07/12 10:03:50;;;;;;;;;;;24.10;99.90;;;;;;5069139;28;19929;-74
2022/07/12 10:06:21;;;;;;;;;;;24.30;99.90;;;;;;5066781;28;20002;-74
2022/07/12 10:08:47;;;;;;;;;;;24.50;99.90;;;;;;5058526;28;20462;-74
2022/07/12 10:11:13;;;;;;;3.38;2.22;;;24.60;99.90;;;;;;5061242;28;20381;-74
2022/07/12 10:13:39;;;;;;;4.25;2.53;;;24.90;99.90;;;;;;5063468;28;20053;-74
2022/07/12 10:16:06;;;;;;;3.78;2.72;;;25.20;99.90;;;;;;5054102;28;20402;-74
2022/07/12 10:18:31;;;;;;;3.67;2.15;;;25.40;99.90;;;;;;5062515;28;20040;-74
2022/07/12 10:20:57;;;;;;;4.23;2.20;;;25.50;99.90;;;;;;5052149;28;20455;-74
2022/07/12 10:23:26;;;;;;;2.80;1.80;;;25.60;99.90;;;;;;5063483;28;20464;-74
2022/07/12 10:25:51;;;;;;;3.85;2.50;;;25.60;99.90;;;;;;5064016;28;20495;-74
2022/07/12 10:28:17;;;;;;;3.23;2.00;;;25.60;99.90;;;;;;5062680;28;20510;-74
2022/07/12 10:30:50;;;;;;;4.20;2.00;;;25.60;99.90;;;;;;5035199;28;20433;-74
2022/07/12 10:33:21;;;;;;;5.47;1.73;;;25.80;99.90;;;;;;5053796;28;20123;-74
2022/07/12 10:36:01;;;;;;;2.42;1.50;;;26.00;99.90;;;;;;5057411;28;20835;-74
2022/07/12 10:38:28;;;;;;;2.42;1.55;;;26.10;99.90;;;;;;5052965;28;20975;-74
2022/07/12 10:40:53;;;;;;;1.90;1.33;;;26.20;99.90;;;;;;5062292;28;20399;-74
2022/07/12 10:44:04;;;;;;;2.33;1.33;;;26.30;99.90;;;;;;5064207;28;20914;-74
2022/07/12 10:46:23;;;;;;;3.42;0.90;;;26.40;99.90;;;;;;5046366;28;20457;-74
2022/07/12 10:48:49;;;;;;;2.53;0.90;;;26.60;99.90;;;;;;5058807;28;20053;-73
2022/07/12 10:51:19;;;;;;;2.10;1.05;;;26.70;99.90;;;;;;5058794;28;20110;-73
2022/07/12 10:53:48;;;;;;;3.55;1.40;;;26.80;99.90;;;;;;5053466;28;20124;-73
2022/07/12 10:56:25;;;;;;;;;;;26.90;99.90;;;;;;5042311;28;20887;-74
2022/07/12 10:59:00;;;;;;;3.30;0.90;;;26.90;99.90;;;;;;5053709;28;19921;-73
2022/07/12 11:01:31;;;;;;;3.40;1.30;;;27.00;99.90;;;;;;5049989;28;20397;-74
2022/07/12 11:04:06;;;;;;;2.70;0.88;;;27.00;99.90;;;;;;5055825;28;21130;-74
2022/07/12 11:06:36;;;;;;;2.88;0.70;;;27.00;99.90;;;;;;5052262;28;20044;-72
2022/07/12 11:09:06;;;;;;;;;;;26.90;99.90;;;;;;5068447;28;20113;-73
2022/07/12 11:11:33;;;;;;;;;;;26.90;99.90;;;;;;5061272;28;20394;-74
2022/07/12 11:14:00;;;;;;;;;;;26.80;99.90;;;;;;5065258;28;19921;-73
2022/07/12 11:16:26;;;;;;;;;;;26.90;99.90;;;;;;5063367;28;19974;-73
2022/07/12 11:18:52;;;;;;;;;;;26.90;99.90;;;;;;5058752;28;19926;-74
2022/07/12 11:21:18;;;;;;;;;;;27.00;99.90;;;;;;5071212;28;20353;-74
2022/07/12 11:23:43;;;;;;;;;;;26.90;99.90;;;;;;5058468;28;19920;-74
2022/07/12 11:26:10;;;;;;;;;;;26.90;99.90;;;;;;5028526;28;19920;-74
2022/07/12 11:28:36;;;;;;;;;;;26.90;99.90;;;;;;5071109;28;19920;-74
2022/07/12 11:31:06;;;;;;;;;;;26.70;99.90;;;;;;5059689;28;19920;-74
2022/07/12 11:33:36;;;;;;;;;;;26.70;99.90;;;;;;5070632;28;19928;-74
2022/07/12 11:36:06;;;;;;;;;;;26.70;99.90;;;;;;5070966;28;19943;-74
2022/07/12 11:38:32;;;;;;;;;;;26.70;99.90;;;;;;5070486;28;20286;-74
2022/07/12 11:40:58;;;;;;;;;;;26.70;99.90;;;;;;5070364;28;19921;-74
2022/07/12 11:43:24;;;;;;;;;;;26.70;99.90;;;;;;5064563;28;19925;-74
2022/07/12 11:45:49;;;;;;;;;;;26.60;99.90;;;;;;5064938;28;20011;-74
2022/07/12 11:48:15;;;;;;;;;;;26.60;99.90;;;;;;5070365;28;20003;-74
2022/07/12 11:50:47;;;;;;;;;;;26.60;99.90;;;;;;5070263;28;19968;-74
2022/07/12 11:53:17;;;;;;;;;;;26.60;99.90;;;;;;5070382;28;19975;-74
2022/07/12 11:55:49;;;;;;;;;;;26.70;99.90;;;;;;5067580;28;19928;-74
2022/07/12 11:58:15;;;;;;;;;;;26.70;99.60;;;;;;5069627;28;19920;-74
2022/07/12 12:00:41;;;;;;;;;;;26.90;99.50;;;;;;5070000;28;19929;-74
2022/07/12 12:03:07;;;;;;;;;;;26.90;98.40;;;;;;5061991;28;19943;-74
2022/07/12 12:05:33;;;;;;;;;;;27.10;97.80;;;;;;5064594;28;19929;-74
2022/07/12 12:07:59;;;;;;;;;;;27.20;98.50;;;;;;5059260;28;19921;-74
2022/07/12 12:10:24;;;;;;;;;;;27.40;98.00;;;;;;5065536;28;19930;-73
2022/07/12 12:12:55;;;;;;;;;;;27.60;97.40;;;;;;5070352;28;19974;-74
2022/07/12 12:15:33;;;;;;;;;;;27.70;96.80;;;;;;5060897;28;19968;-74
2022/07/12 12:18:02;;;;;;;;;;;27.70;97.60;;;;;;5068717;28;20400;-74
2022/07/12 12:20:29;;;;;;;;;;;27.70;97.20;;;;;;5068764;28;19927;-74
2022/07/12 12:22:58;;;;;;;;;;;27.70;96.40;;;;;;5070290;28;19963;-74
2022/07/12 12:25:24;;;;;;;;;;;27.70;96.40;;;;;;5063846;28;19920;-73
2022/07/12 12:27:55;;;;;;;0.95;0.40;;;27.80;96.80;;;;;;5068476;28;19966;-73
2022/07/12 12:30:21;;;;;;;1.48;0.35;;;28.10;96.90;;;;;;5063972;28;20082;-74
2022/07/12 12:32:49;;;;;;;1.02;0.40;;;28.50;96.50;;;;;;5068141;28;20049;-73
2022/07/12 12:35:18;;;;;;;0.85;0.40;;;28.80;95.40;;;;;;5066840;28;20040;-74
2022/07/12 12:37:51;;;;;;;3.20;0.60;;;29.10;95.60;;;;;;5068589;28;20128;-72
2022/07/12 12:40:21;;;;;;;0.57;0.38;;;29.40;95.70;;;;;;5068392;28;20066;-71
2022/07/12 12:42:48;;;;;;;1.00;0.20;;;29.60;93.90;;;;;;5068944;28;20040;-72
2022/07/12 12:45:24;;;;;;;1.75;0.30;;;29.80;93.20;;;;;;5062533;28;20045;-72
2022/07/12 12:47:59;;;;;;;0.60;0.22;;;29.90;93.30;;;;;;5068724;28;20131;-73
2022/07/12 12:50:43;;;;;;;0.80;0.20;;;30.20;93.50;;;;;;5067303;28;20121;-72
2022/07/12 12:53:22;;;;;;;1.30;0.35;;;30.40;92.80;;;;;;5062522;28;20106;-72
2022/07/12 12:55:50;;;;;;;2.80;0.40;;;30.50;92.60;;;;;;5064593;28;20131;-71
2022/07/12 12:58:16;;;;;;;1.08;0.30;;;30.60;92.70;;;;;;5067058;28;20041;-72
2022/07/12 13:00:44;;;;;;;1.38;0.30;;;30.80;91.70;;;;;;5063729;28;20048;-72
2022/07/12 13:03:12;;;;;;;0.68;0.15;;;31.00;91.00;;;;;;5061745;28;20090;-72
2022/07/12 13:05:39;;;;;;;1.80;0.20;;;31.10;91.10;;;;;;5068812;28;20057;-73
2022/07/12 13:08:07;;;;;;;1.20;0.30;;;31.30;90.50;;;;;;5061962;28;20067;-71
2022/07/12 13:10:33;;;;;;;1.00;0.17;;;31.50;90.20;;;;;;5060183;28;20123;-71
2022/07/12 13:12:59;;;;;;;1.10;0.20;;;31.60;89.00;;;;;;5050574;28;20430;-70
2022/07/12 13:15:26;;;;;;;0.30;0.20;;;31.60;88.10;;;;;;5068382;28;20076;-71
2022/07/12 13:17:51;;;;;;;3.05;0.22;;;31.60;85.60;;;;;;5057997;28;20127;-71
2022/07/12 13:20:17;;;;;;;1.50;0.20;;;31.70;85.50;;;;;;5065395;28;20116;-71
2022/07/12 13:22:43;;;;;;;2.53;0.20;;;31.90;84.60;;;;;;5066074;28;20414;-71
2022/07/12 13:25:11;;;;;;;0.88;0.20;;;31.90;80.70;;;;;;5068972;28;20041;-71
2022/07/12 13:27:37;;;;;;;1.55;0.20;;;31.90;79.50;;;;;;5068081;28;20157;-71
2022/07/12 13:30:03;;;;;;;0.20;0.10;;;31.80;78.10;;;;;;5065705;28;20045;-71
2022/07/12 13:32:29;;;;;;;0.70;0.10;;;31.90;78.40;;;;;;5069056;28;20044;-70
2022/07/12 13:34:55;;;;;;;2.08;0.20;;;31.80;76.60;;;;;;5068676;28;20039;-71
2022/07/12 13:37:20;;;;;;;1.30;0.13;;;31.70;78.00;;;;;;5068557;28;20083;-70
2022/07/12 13:42:30;;;;;;;;;;;31.50;76.60;;;;;;5061920;28;20047;-71
2022/07/12 13:44:56;;;;;;;;;;;31.20;73.40;;;;;;5050811;28;19921;-71
2022/07/12 13:47:22;;;;;;;;;;;31.00;74.50;;;;;;5069417;28;19931;-71
2022/07/12 13:49:48;;;;;;;;;;;30.70;73.90;;;;;;5068985;28;19920;-71
2022/07/12 13:52:13;;;;;;;;;;;30.50;74.90;;;;;;5063958;28;19971;-71
2022/07/12 13:54:39;;;;;;;;;;;30.30;73.90;;;;;;5068553;28;19924;-71
2022/07/12 13:57:05;;;;;;;;;;;30.20;75.20;;;;;;5068285;28;19920;-71
2022/07/12 13:59:30;;;;;;;;;;;30.10;73.60;;;;;;5068997;28;20468;-71
2022/07/12 14:01:56;;;;;;;;;;;30.00;74.20;;;;;;5068331;28;20321;-71
2022/07/12 14:04:21;;;;;;;;;;;30.00;76.10;;;;;;5071644;28;19924;-71
2022/07/12 14:06:48;;;;;;;;;;;29.90;75.00;;;;;;5071987;28;19920;-71
2022/07/12 14:09:14;;;;;;;;;;;29.90;74.70;;;;;;5071567;28;19951;-71
2022/07/12 14:11:40;;;;;;;;;;;29.80;74.20;;;;;;5062622;28;20023;-71